Waldorf, Minnesota
Current Conditions -  °F | °C
As of 6:15 AM on Monday 24 Nov 2014 (Local Time) from KACQ Reporting Station
Haze Haze  
Wind Chill:   Ceiling: 1000
Heat Index: 21°   Visibility: 5mi
Dew Point: 18°   Wind: 22mph
Humidity: 86%   Direction: 290°WNW
Pressure: 29.37"   Gusts: 29mph
Location:  43.93°N, 93.7°W
Report Text: KACQ 241215Z AUTO 29019G25KT 5SM HZ OVC010 M06/M08 A2937 RMK AO2
Loading
Personal Weather Stations






























Interactive Weather Map New forecast layout! Learn more

10-Day Weather Forecast

Advertisements
Track Severe Weather on mobile